createdAt,value
2023-04-17T00:00:36.983Z,1.55
2023-04-17T00:03:06.336Z,1.88
2023-04-17T00:05:35.923Z,1.42
2023-04-17T00:08:05.073Z,1.80
2023-04-17T00:10:34.390Z,1.60
2023-04-17T00:13:05.097Z,2.08
2023-04-17T00:15:34.454Z,1.70
2023-04-17T00:18:03.644Z,1.88
2023-04-17T00:20:33.012Z,1.65
2023-04-17T00:23:02.586Z,1.60
2023-04-17T00:25:31.783Z,1.73
2023-04-17T00:28:00.985Z,1.67
2023-04-17T00:30:31.683Z,1.63
2023-04-17T00:33:00.879Z,1.52
2023-04-17T00:35:30.256Z,1.80
2023-04-17T00:37:59.368Z,1.50
2023-04-17T00:40:28.685Z,1.60
2023-04-17T00:43:01.835Z,1.60
2023-04-17T00:45:33.062Z,1.63
2023-04-17T00:48:04.997Z,1.58
2023-04-17T00:50:34.706Z,1.67
2023-04-17T00:53:04.269Z,1.73
2023-04-17T00:55:35.862Z,1.80
2023-04-17T00:58:05.484Z,1.65
2023-04-17T01:00:36.524Z,1.60
2023-04-17T01:03:06.261Z,1.33
2023-04-17T01:05:38.502Z,1.55
2023-04-17T01:08:07.848Z,1.40
2023-04-17T01:10:37.249Z,1.42
2023-04-17T01:13:08.807Z,1.85
2023-04-17T01:15:41.494Z,1.40
2023-04-17T01:18:12.608Z,1.58
2023-04-17T01:20:42.256Z,1.50
2023-04-17T01:23:11.738Z,1.60
2023-04-17T01:25:43.565Z,1.40
2023-04-17T01:28:12.928Z,2.03
2023-04-17T01:30:42.311Z,1.40
2023-04-17T01:33:11.944Z,1.60
2023-04-17T01:35:41.103Z,1.50
2023-04-17T01:38:10.307Z,1.67
2023-04-17T01:40:39.546Z,1.50
2023-04-17T01:43:10.317Z,1.50
2023-04-17T01:45:39.635Z,1.48
2023-04-17T01:48:08.802Z,1.63
2023-04-17T01:50:38.259Z,1.60
2023-04-17T01:53:07.374Z,1.50
2023-04-17T01:55:36.679Z,1.73
2023-04-17T01:58:05.966Z,1.50
2023-04-17T02:00:36.629Z,1.50
2023-04-17T02:03:06.612Z,1.50
2023-04-17T02:05:35.984Z,1.40
2023-04-17T02:08:05.215Z,1.75
2023-04-17T02:10:34.633Z,1.60
2023-04-17T02:13:03.954Z,1.50
2023-04-17T02:15:33.148Z,1.50
2023-04-17T02:18:04.132Z,1.50
2023-04-17T02:20:33.651Z,1.70
2023-04-17T02:23:03.977Z,1.52
2023-04-17T02:25:33.980Z,1.75
2023-04-17T02:28:03.232Z,1.40
2023-04-17T02:30:32.641Z,1.60
2023-04-17T02:33:03.308Z,1.95
2023-04-17T02:35:34.375Z,1.70
2023-04-17T02:38:03.682Z,1.48
2023-04-17T02:40:35.412Z,1.50
2023-04-17T02:43:04.958Z,1.58
2023-04-17T02:45:34.136Z,1.63
2023-04-17T02:48:06.041Z,1.50
2023-04-17T02:50:35.503Z,1.70
2023-04-17T02:53:16.238Z,1.35
2023-04-17T02:55:45.472Z,1.65
2023-04-17T02:58:15.880Z,1.40
2023-04-17T03:00:45.284Z,1.50
2023-04-17T03:03:19.675Z,1.70
2023-04-17T03:05:49.079Z,1.65
2023-04-17T03:08:18.279Z,1.63
2023-04-17T03:10:50.287Z,1.63
2023-04-17T03:13:19.485Z,1.70
2023-04-17T03:15:48.846Z,1.60
2023-04-17T03:18:19.586Z,1.60
2023-04-17T03:20:48.939Z,1.60
2023-04-17T03:23:18.139Z,1.63
2023-04-17T03:25:47.335Z,1.45
2023-04-17T03:28:18.624Z,1.55
2023-04-17T03:30:47.956Z,1.75
2023-04-17T03:33:18.619Z,1.70
2023-04-17T03:35:47.923Z,1.50
2023-04-17T03:38:19.374Z,1.73
2023-04-17T03:40:49.314Z,1.88
2023-04-17T03:43:18.608Z,1.67
2023-04-17T03:45:48.189Z,1.70
2023-04-17T03:48:19.355Z,1.40
2023-04-17T03:50:52.454Z,1.67
2023-04-17T03:53:21.971Z,1.83
2023-04-17T03:55:52.093Z,1.70
2023-04-17T03:58:32.313Z,1.85
2023-04-17T04:01:02.391Z,1.83
2023-04-17T04:03:36.542Z,1.50
2023-04-17T04:06:07.462Z,1.60
2023-04-17T04:08:37.184Z,1.65
2023-04-17T04:11:06.547Z,1.98
2023-04-17T04:13:39.299Z,1.60
2023-04-17T04:16:10.355Z,1.80
2023-04-17T04:18:43.516Z,1.60
2023-04-17T04:21:13.958Z,1.80
2023-04-17T04:23:45.732Z,1.90
2023-04-17T04:26:18.815Z,1.80
2023-04-17T04:28:53.788Z,1.58
2023-04-17T04:31:32.554Z,2.20
2023-04-17T04:34:06.704Z,1.60
2023-04-17T04:36:36.560Z,1.70
2023-04-17T04:39:20.970Z,1.42
2023-04-17T04:41:52.198Z,1.73
2023-04-17T04:44:24.775Z,2.25
2023-04-17T04:46:58.285Z,2.10
2023-04-17T04:49:29.704Z,1.95
2023-04-17T04:51:59.333Z,1.95
2023-04-17T04:54:33.996Z,2.03
2023-04-17T04:57:04.396Z,2.10
2023-04-17T04:59:33.998Z,1.75
2023-04-17T05:02:23.176Z,1.92
2023-04-17T05:04:54.228Z,2.03
2023-04-17T05:07:23.558Z,1.90
2023-04-17T05:09:52.860Z,1.75
2023-04-17T05:12:22.880Z,1.60
2023-04-17T05:14:52.128Z,1.67
2023-04-17T05:17:22.593Z,1.60
2023-04-17T05:19:53.862Z,1.60
2023-04-17T05:22:24.669Z,1.75
2023-04-17T05:25:09.990Z,1.65
2023-04-17T05:27:39.852Z,1.70
2023-04-17T05:30:10.767Z,1.60
2023-04-17T05:32:40.176Z,1.90
2023-04-17T05:35:28.634Z,1.70
2023-04-17T05:37:57.951Z,1.65
2023-04-17T05:40:27.113Z,1.40
2023-04-17T05:42:56.869Z,1.70
2023-04-17T05:45:26.747Z,1.60
2023-04-17T05:47:56.189Z,1.90
2023-04-17T05:50:25.438Z,1.70
2023-04-17T05:52:56.853Z,1.67
2023-04-17T05:55:29.740Z,1.65
2023-04-17T05:58:10.534Z,1.88
2023-04-17T06:00:51.901Z,1.70
2023-04-17T06:03:22.309Z,1.65
2023-04-17T06:05:58.802Z,1.98
2023-04-17T06:08:29.643Z,1.77
2023-04-17T06:10:59.209Z,1.63
2023-04-17T06:13:28.551Z,1.92
2023-04-17T06:15:58.983Z,2.00
2023-04-17T06:18:28.258Z,1.52
2023-04-17T06:20:57.552Z,1.80
2023-04-17T06:23:26.793Z,1.98
2023-04-17T06:25:57.962Z,1.67
2023-04-17T06:28:27.409Z,2.10
2023-04-17T06:30:58.093Z,1.70
2023-04-17T06:33:27.411Z,1.92
2023-04-17T06:35:57.772Z,2.00
2023-04-17T06:38:41.115Z,1.90
2023-04-17T06:41:12.309Z,1.75
2023-04-17T06:43:42.622Z,1.80
2023-04-17T06:46:17.818Z,1.70
2023-04-17T06:48:47.435Z,2.00
2023-04-17T06:51:18.059Z,1.90
2023-04-17T06:53:47.277Z,2.00
2023-04-17T06:56:18.492Z,1.80
2023-04-17T06:58:48.349Z,1.80
2023-04-17T07:01:17.670Z,1.77
2023-04-17T07:03:47.720Z,1.73
2023-04-17T07:06:17.256Z,1.80
2023-04-17T07:08:46.586Z,1.75
2023-04-17T07:11:17.248Z,2.03
2023-04-17T07:13:46.505Z,1.92
2023-04-17T07:16:16.501Z,1.95
2023-04-17T07:18:45.761Z,1.77
2023-04-17T07:21:15.089Z,1.65
2023-04-17T07:23:44.479Z,1.95
2023-04-17T07:26:13.765Z,1.85
2023-04-17T07:28:44.359Z,2.00
2023-04-17T07:31:13.668Z,1.90
2023-04-17T07:33:42.859Z,1.85
2023-04-17T07:36:12.750Z,1.98
2023-04-17T07:38:42.527Z,1.90
2023-04-17T07:41:12.472Z,1.75
2023-04-17T07:43:41.764Z,1.75
2023-04-17T07:46:12.325Z,1.80
2023-04-17T07:48:41.716Z,1.80
2023-04-17T07:51:10.966Z,2.00
2023-04-17T07:53:40.269Z,1.80
2023-04-17T07:56:10.242Z,1.80
2023-04-17T07:58:40.633Z,1.60
2023-04-17T08:01:11.720Z,1.80
2023-04-17T08:03:45.017Z,1.90
2023-04-17T08:06:14.525Z,1.92
2023-04-17T08:08:47.691Z,1.73
2023-04-17T08:11:17.173Z,1.98
2023-04-17T08:13:46.488Z,1.95
2023-04-17T08:16:17.252Z,1.98
2023-04-17T08:18:46.826Z,1.67
2023-04-17T08:21:16.418Z,1.80
2023-04-17T08:23:45.664Z,1.70
2023-04-17T08:26:15.060Z,1.77
2023-04-17T08:28:44.330Z,1.75
2023-04-17T08:31:14.077Z,1.85
2023-04-17T08:33:44.988Z,1.70
2023-04-17T08:36:14.393Z,1.98
2023-04-17T08:38:45.333Z,1.98
2023-04-17T08:41:18.457Z,1.75
2023-04-17T08:43:50.152Z,2.10
2023-04-17T08:46:22.659Z,1.83
2023-04-17T08:48:53.551Z,1.67
2023-04-17T08:51:26.409Z,2.05
2023-04-17T08:53:55.972Z,1.60
2023-04-17T08:56:25.218Z,1.65
2023-04-17T08:58:54.603Z,1.80
2023-04-17T09:01:23.827Z,1.88
2023-04-17T09:03:55.012Z,1.83
2023-04-17T09:06:24.597Z,2.08
2023-04-17T09:08:58.376Z,1.85
2023-04-17T09:11:28.693Z,1.83
2023-04-17T09:13:58.153Z,1.83
2023-04-17T09:16:28.714Z,1.95
2023-04-17T09:19:08.011Z,1.50
2023-04-17T09:21:37.534Z,1.85
2023-04-17T09:24:07.812Z,1.58
2023-04-17T09:26:37.273Z,1.63
2023-04-17T09:29:09.407Z,1.65
2023-04-17T09:31:40.846Z,1.70
2023-04-17T09:34:13.012Z,1.85
2023-04-17T09:36:43.667Z,1.85
2023-04-17T09:39:20.829Z,1.80
2023-04-17T09:41:50.536Z,1.75
2023-04-17T09:44:28.251Z,1.67
2023-04-17T09:46:58.385Z,1.90
2023-04-17T09:49:35.181Z,1.42
2023-04-17T09:52:05.619Z,1.85
2023-04-17T09:54:38.378Z,1.75
2023-04-17T09:57:09.090Z,1.88
2023-04-17T09:59:41.390Z,1.80
2023-04-17T10:02:11.864Z,1.63
2023-04-17T10:04:44.542Z,1.70
2023-04-17T10:07:16.654Z,1.48
2023-04-17T10:09:46.893Z,2.00
2023-04-17T10:12:18.160Z,1.88
2023-04-17T10:14:51.166Z,1.88
2023-04-17T10:17:31.902Z,1.77
2023-04-17T10:20:39.137Z,1.67
2023-04-17T10:23:31.512Z,1.80
2023-04-17T10:26:46.280Z,1.80
2023-04-17T10:29:15.565Z,1.80
2023-04-17T10:32:28.996Z,1.63
2023-04-17T10:34:59.293Z,1.80
2023-04-17T10:38:01.749Z,1.80
2023-04-17T10:40:34.500Z,1.60
2023-04-17T10:43:13.310Z,2.00
2023-04-17T10:45:56.808Z,1.60
2023-04-17T10:48:33.438Z,1.83
2023-04-17T10:51:03.527Z,1.80
2023-04-17T10:53:44.607Z,1.92
2023-04-17T10:56:21.249Z,2.00
2023-04-17T10:58:59.305Z,1.70
2023-04-17T11:01:33.114Z,1.50
2023-04-17T11:04:02.854Z,1.70
2023-04-17T11:06:33.508Z,1.90
2023-04-17T11:09:04.009Z,1.80
2023-04-17T11:11:44.115Z,1.60
2023-04-17T11:14:17.322Z,2.00
2023-04-17T11:16:48.628Z,1.58
2023-04-17T11:19:21.719Z,1.67
2023-04-17T11:21:52.710Z,1.63
2023-04-17T11:24:25.753Z,1.75
2023-04-17T11:26:57.964Z,1.60
2023-04-17T11:29:27.747Z,1.80
2023-04-17T11:31:59.314Z,1.70
2023-04-17T11:34:28.773Z,1.63
2023-04-17T11:36:59.021Z,1.70
2023-04-17T11:39:30.679Z,2.05
2023-04-17T11:42:02.624Z,1.80
2023-04-17T11:44:32.047Z,1.60
2023-04-17T11:47:01.460Z,1.67
2023-04-17T11:49:32.285Z,1.83
2023-04-17T11:52:04.334Z,1.75
2023-04-17T11:54:37.391Z,1.70
2023-04-17T11:57:12.930Z,1.60
2023-04-17T11:59:45.073Z,1.73
2023-04-17T12:02:15.471Z,1.75
2023-04-17T12:04:44.837Z,1.75
2023-04-17T12:07:24.163Z,1.70
2023-04-17T12:09:57.889Z,1.80
2023-04-17T12:12:29.535Z,1.70
2023-04-17T12:14:59.626Z,1.70
2023-04-17T12:17:28.943Z,1.83
2023-04-17T12:20:02.540Z,1.60
2023-04-17T12:22:32.355Z,1.60
2023-04-17T12:25:01.585Z,1.75
2023-04-17T12:27:37.437Z,1.73
2023-04-17T12:30:07.629Z,1.88
2023-04-17T12:32:38.335Z,1.80
2023-04-17T12:35:08.188Z,1.65
2023-04-17T12:37:37.459Z,1.73
2023-04-17T12:40:08.325Z,1.70
2023-04-17T12:42:48.313Z,1.60
2023-04-17T12:45:19.272Z,1.70
2023-04-17T12:47:48.541Z,1.80
2023-04-17T12:50:17.974Z,1.30
2023-04-17T12:52:47.171Z,1.70
2023-04-17T12:55:16.366Z,1.83
2023-04-17T12:57:47.543Z,1.60
2023-04-17T13:00:17.744Z,1.88
2023-04-17T13:02:47.085Z,1.55
2023-04-17T13:05:16.480Z,1.80
2023-04-17T13:07:46.428Z,1.80
2023-04-17T13:10:15.644Z,1.60
2023-04-17T13:12:46.384Z,1.70
2023-04-17T13:15:15.674Z,1.70
2023-04-17T13:17:45.457Z,1.70
2023-04-17T13:20:15.299Z,1.50
2023-04-17T13:22:44.731Z,1.75
2023-04-17T13:25:14.042Z,1.52
2023-04-17T13:27:43.365Z,1.38
2023-04-17T13:30:14.747Z,1.65
2023-04-17T13:32:44.443Z,1.45
2023-04-17T13:35:14.756Z,1.60
2023-04-17T13:37:44.003Z,1.85
2023-04-17T13:40:14.394Z,1.80
2023-04-17T13:42:45.249Z,1.60
2023-04-17T13:45:16.226Z,1.45
2023-04-17T13:47:46.288Z,1.30
2023-04-17T13:50:15.526Z,1.60
2023-04-17T13:52:44.830Z,1.70
2023-04-17T13:55:16.276Z,1.60
2023-04-17T13:57:45.588Z,1.52
2023-04-17T14:00:18.573Z,1.48
2023-04-17T14:02:47.941Z,1.80
2023-04-17T14:05:17.313Z,1.65
2023-04-17T14:07:46.624Z,1.50
2023-04-17T14:10:15.792Z,1.50
2023-04-17T14:12:45.255Z,1.45
2023-04-17T14:15:16.363Z,1.42
2023-04-17T14:17:45.941Z,1.45
2023-04-17T14:20:18.031Z,1.55
2023-04-17T14:22:47.452Z,1.27
2023-04-17T14:25:16.974Z,1.50
2023-04-17T14:27:46.384Z,1.63
2023-04-17T14:30:17.283Z,1.40
2023-04-17T14:32:46.696Z,1.30
2023-04-17T14:35:16.151Z,1.58
2023-04-17T14:37:45.354Z,1.73
2023-04-17T14:40:15.033Z,1.75
2023-04-17T14:42:54.012Z,1.33
2023-04-17T14:45:25.621Z,1.60
2023-04-17T14:47:55.013Z,1.48
2023-04-17T14:50:24.425Z,1.33
2023-04-17T14:52:55.918Z,1.50
2023-04-17T14:55:25.601Z,1.45
2023-04-17T14:57:55.637Z,1.40
2023-04-17T15:00:26.767Z,1.50
2023-04-17T15:02:56.201Z,1.58
2023-04-17T15:05:25.807Z,1.40
2023-04-17T15:07:55.154Z,1.42
2023-04-17T15:10:24.341Z,1.85
2023-04-17T15:12:53.575Z,1.83
2023-04-17T15:15:22.884Z,1.90
2023-04-17T15:17:53.557Z,2.28
2023-04-17T15:20:25.208Z,2.17
2023-04-17T15:22:54.523Z,2.45
2023-04-17T15:25:25.258Z,2.28
2023-04-17T15:27:54.638Z,2.13
2023-04-17T15:30:23.903Z,2.00
2023-04-17T15:32:54.569Z,1.80
2023-04-17T15:35:23.792Z,2.28
2023-04-17T15:37:52.938Z,2.13
2023-04-17T15:40:22.195Z,1.92
2023-04-17T15:42:51.418Z,2.00
2023-04-17T15:45:20.647Z,2.05
2023-04-17T15:47:49.929Z,2.15
2023-04-17T15:50:21.303Z,2.00
2023-04-17T15:52:50.773Z,1.50
2023-04-17T15:55:20.330Z,2.42
2023-04-17T15:57:49.650Z,1.80
2023-04-17T16:00:20.132Z,1.67
2023-04-17T16:02:50.563Z,1.60
2023-04-17T16:05:21.665Z,2.10
2023-04-17T16:07:51.406Z,1.95
2023-04-17T16:10:20.775Z,1.58
2023-04-17T16:12:50.098Z,1.77
2023-04-17T16:15:19.682Z,1.67
2023-04-17T16:17:49.665Z,1.58
2023-04-17T16:20:20.568Z,1.73
2023-04-17T16:22:49.944Z,1.50
2023-04-17T16:25:20.777Z,1.50
2023-04-17T16:27:50.172Z,1.58
2023-04-17T16:30:19.552Z,1.70
2023-04-17T16:32:50.313Z,1.60
2023-04-17T16:35:21.063Z,1.65
2023-04-17T16:37:50.670Z,1.48
2023-04-17T16:40:19.966Z,1.42
2023-04-17T16:42:49.232Z,1.40
2023-04-17T16:45:18.528Z,1.58
2023-04-17T16:47:47.756Z,1.85
2023-04-17T16:50:17.089Z,1.42
2023-04-17T16:52:50.505Z,1.40
2023-04-17T16:55:19.981Z,1.35
2023-04-17T16:57:49.225Z,1.50
2023-04-17T17:00:19.137Z,1.42
2023-04-17T17:02:48.492Z,1.45
2023-04-17T17:05:17.902Z,1.60
2023-04-17T17:07:48.630Z,1.30
2023-04-17T17:10:17.929Z,1.73
2023-04-17T17:12:47.210Z,1.77
2023-04-17T17:15:16.597Z,1.73
2023-04-17T17:17:46.165Z,1.50
2023-04-17T17:20:15.910Z,13.70
2023-04-17T17:22:45.260Z,46.75
2023-04-17T17:25:16.106Z,56.25
2023-04-17T17:27:45.584Z,54.00
2023-04-17T17:30:15.537Z,42.45
2023-04-17T17:32:44.987Z,19.15
2023-04-17T17:35:14.328Z,11.80
2023-04-17T17:37:43.589Z,32.97
2023-04-17T17:40:13.391Z,38.50
2023-04-17T17:42:45.302Z,57.25
2023-04-17T17:45:14.641Z,54.88
2023-04-17T17:47:43.891Z,48.38
2023-04-17T17:50:13.108Z,45.30
2023-04-17T17:52:42.332Z,40.55
2023-04-17T17:55:16.083Z,39.35
2023-04-17T17:57:49.405Z,37.63
2023-04-17T18:00:19.683Z,40.42
2023-04-17T18:02:49.082Z,37.67
2023-04-17T18:05:34.552Z,37.47
2023-04-17T18:08:03.802Z,34.67
2023-04-17T18:10:33.016Z,31.15
2023-04-17T18:13:02.312Z,34.38
2023-04-17T18:15:31.452Z,30.77
2023-04-17T18:18:00.868Z,31.75
2023-04-17T18:20:30.055Z,30.33
2023-04-17T18:23:00.701Z,29.00
2023-04-17T18:25:30.048Z,30.73
2023-04-17T18:27:59.350Z,28.55
2023-04-17T18:30:28.725Z,26.85
2023-04-17T18:32:58.189Z,24.65
2023-04-17T18:35:27.260Z,24.23
2023-04-17T18:37:56.750Z,25.08
2023-04-17T18:40:27.371Z,23.48
2023-04-17T18:42:56.552Z,24.67
2023-04-17T18:45:25.780Z,23.98
2023-04-17T18:47:55.314Z,22.55
2023-04-17T18:50:24.615Z,21.92
2023-04-17T18:52:53.888Z,22.20
2023-04-17T18:55:23.317Z,21.25
2023-04-17T18:57:54.238Z,20.27
2023-04-17T19:00:23.752Z,19.42
2023-04-17T19:02:53.350Z,21.38
2023-04-17T19:05:23.053Z,20.00
2023-04-17T19:07:52.535Z,20.02
2023-04-17T19:10:22.020Z,17.63
2023-04-17T19:12:51.491Z,18.58
2023-04-17T19:15:22.663Z,18.10
2023-04-17T19:17:53.034Z,18.02
2023-04-17T19:20:24.098Z,16.77
2023-04-17T19:22:54.452Z,16.15
2023-04-17T19:25:23.733Z,17.40
2023-04-17T19:27:53.127Z,15.98
2023-04-17T19:30:23.734Z,16.17
2023-04-17T19:32:53.019Z,15.88
2023-04-17T19:35:22.331Z,16.23
2023-04-17T19:37:51.797Z,15.32
2023-04-17T19:40:25.125Z,14.85
2023-04-17T19:42:56.381Z,14.07
2023-04-17T19:45:27.934Z,14.30
2023-04-17T19:47:57.443Z,13.20
2023-04-17T19:50:27.702Z,11.93
2023-04-17T19:52:58.459Z,12.40
2023-04-17T19:55:27.679Z,13.40
2023-04-17T19:57:59.054Z,12.35
2023-04-17T20:00:29.832Z,11.50
2023-04-17T20:02:59.356Z,11.98
2023-04-17T20:05:28.924Z,10.57
2023-04-17T20:07:58.428Z,11.23
2023-04-17T20:10:27.968Z,11.30
2023-04-17T20:12:57.145Z,11.98
2023-04-17T20:15:26.454Z,10.40
2023-04-17T20:17:57.067Z,12.20
2023-04-17T20:20:26.381Z,10.00
2023-04-17T20:22:55.590Z,11.98
2023-04-17T20:25:24.906Z,9.82
2023-04-17T20:27:54.122Z,10.57
2023-04-17T20:30:23.824Z,10.10
2023-04-17T20:32:53.205Z,9.90
2023-04-17T20:35:24.936Z,10.35
2023-04-17T20:37:54.253Z,9.63
2023-04-17T20:40:23.450Z,9.45
2023-04-17T20:42:52.829Z,9.20
2023-04-17T20:45:22.152Z,9.95
2023-04-17T20:50:25.188Z,10.02
2023-04-17T20:52:54.449Z,9.18
2023-04-17T20:55:24.411Z,9.52
2023-04-17T20:57:53.558Z,7.90
2023-04-17T21:00:22.949Z,9.40
2023-04-17T21:02:52.200Z,8.80
2023-04-17T21:05:21.633Z,7.93
2023-04-17T21:07:53.107Z,8.88
2023-04-17T21:10:22.381Z,8.35
2023-04-17T21:12:51.666Z,8.60
2023-04-17T21:15:20.919Z,7.80
2023-04-17T21:17:50.203Z,8.30
2023-04-17T21:20:19.483Z,7.97
2023-04-17T21:22:49.617Z,7.88
2023-04-17T21:25:20.557Z,7.25
2023-04-17T21:27:49.737Z,8.23
2023-04-17T21:30:19.217Z,7.32
2023-04-17T21:32:49.209Z,7.70
2023-04-17T21:35:18.472Z,7.13
2023-04-17T21:37:47.701Z,7.53
2023-04-17T21:40:16.936Z,7.70
2023-04-17T21:42:47.732Z,7.53
2023-04-17T21:45:17.103Z,8.32
2023-04-17T21:47:46.323Z,7.30
2023-04-17T21:50:15.590Z,7.43
2023-04-17T21:52:44.799Z,7.20
2023-04-17T21:55:13.931Z,6.53
2023-04-17T21:57:43.092Z,6.82
2023-04-17T22:00:15.137Z,7.65
2023-04-17T22:02:44.664Z,6.93
2023-04-17T22:05:14.024Z,6.32
2023-04-17T22:07:53.854Z,6.50
2023-04-17T22:10:24.659Z,6.63
2023-04-17T22:12:53.847Z,6.38
2023-04-17T22:15:24.372Z,6.07
2023-04-17T22:17:53.624Z,5.97
2023-04-17T22:20:22.839Z,6.93
2023-04-17T22:22:52.001Z,5.55
2023-04-17T22:25:22.099Z,5.97
2023-04-17T22:27:51.344Z,5.85
2023-04-17T22:30:20.773Z,5.95
2023-04-17T22:32:51.469Z,6.28
2023-04-17T22:35:20.758Z,6.03
2023-04-17T22:37:50.075Z,6.05
2023-04-17T22:40:19.543Z,5.88
2023-04-17T22:42:48.824Z,6.13
2023-04-17T22:45:18.162Z,5.43
2023-04-17T22:47:47.376Z,5.80
2023-04-17T22:50:18.600Z,5.80
2023-04-17T22:52:47.854Z,5.40
2023-04-17T22:55:17.036Z,5.80
2023-04-17T22:57:46.231Z,5.60
2023-04-17T23:00:16.414Z,5.60
2023-04-17T23:02:45.829Z,4.88
2023-04-17T23:05:15.126Z,5.30
2023-04-17T23:07:45.943Z,5.00
2023-04-17T23:10:15.095Z,5.10
2023-04-17T23:12:44.459Z,5.43
2023-04-17T23:15:13.838Z,4.78
2023-04-17T23:17:43.032Z,5.18
2023-04-17T23:20:13.272Z,4.80
2023-04-17T23:22:42.574Z,5.40
2023-04-17T23:25:13.573Z,4.90
2023-04-17T23:27:42.789Z,4.45
2023-04-17T23:30:12.729Z,5.15
2023-04-17T23:32:43.496Z,4.70
2023-04-17T23:35:12.690Z,5.18
2023-04-17T23:37:41.835Z,5.07
2023-04-17T23:40:13.211Z,4.70
2023-04-17T23:42:42.529Z,4.97
2023-04-17T23:45:12.329Z,4.15
2023-04-17T23:47:41.533Z,4.65
2023-04-17T23:50:11.822Z,4.20
2023-04-17T23:52:41.130Z,4.93
2023-04-17T23:55:10.635Z,4.70
2023-04-17T23:57:41.428Z,4.47
